sensor_id;sensor_type;location;lat;lon;timestamp;temperature;humidity
75155;HTU21D;63735;44.730;37.818;2023-05-10T00:01:09;11.04;83.72
75155;HTU21D;63735;44.730;37.818;2023-05-10T00:03:35;11.00;83.69
75155;HTU21D;63735;44.730;37.818;2023-05-10T00:06:01;11.00;83.66
75155;HTU21D;63735;44.730;37.818;2023-05-10T00:08:27;10.99;83.61
75155;HTU21D;63735;44.730;37.818;2023-05-10T00:10:53;10.94;83.55
75155;HTU21D;63735;44.730;37.818;2023-05-10T00:13:19;10.88;83.56
75155;HTU21D;63735;44.730;37.818;2023-05-10T00:15:45;10.84;83.52
75155;HTU21D;63735;44.730;37.818;2023-05-10T00:18:11;10.81;83.52
75155;HTU21D;63735;44.730;37.818;2023-05-10T00:20:37;10.79;83.49
75155;HTU21D;63735;44.730;37.818;2023-05-10T00:23:03;10.77;83.49
75155;HTU21D;63735;44.730;37.818;2023-05-10T00:25:29;10.73;83.47
75155;HTU21D;63735;44.730;37.818;2023-05-10T00:27:55;10.75;83.49
75155;HTU21D;63735;44.730;37.818;2023-05-10T00:30:22;10.77;83.37
75155;HTU21D;63735;44.730;37.818;2023-05-10T00:32:48;10.73;83.26
75155;HTU21D;63735;44.730;37.818;2023-05-10T00:35:16;10.68;83.25
75155;HTU21D;63735;44.730;37.818;2023-05-10T00:37:42;10.70;83.27
75155;HTU21D;63735;44.730;37.818;2023-05-10T00:40:08;10.69;83.19
75155;HTU21D;63735;44.730;37.818;2023-05-10T00:42:34;10.66;83.10
75155;HTU21D;63735;44.730;37.818;2023-05-10T00:45:00;10.65;83.13
75155;HTU21D;63735;44.730;37.818;2023-05-10T00:47:26;10.64;83.11
75155;HTU21D;63735;44.730;37.818;2023-05-10T00:49:52;10.63;83.09
75155;HTU21D;63735;44.730;37.818;2023-05-10T00:52:19;10.59;83.08
75155;HTU21D;63735;44.730;37.818;2023-05-10T00:54:46;10.56;83.07
75155;HTU21D;63735;44.730;37.818;2023-05-10T00:57:13;10.52;83.08
75155;HTU21D;63735;44.730;37.818;2023-05-10T00:59:39;10.49;83.15
75155;HTU21D;63735;44.730;37.818;2023-05-10T01:02:05;10.51;83.20
75155;HTU21D;63735;44.730;37.818;2023-05-10T01:04:31;10.50;83.17
75155;HTU21D;63735;44.730;37.818;2023-05-10T01:06:58;10.54;83.15
75155;HTU21D;63735;44.730;37.818;2023-05-10T01:09:25;10.53;83.08
75155;HTU21D;63735;44.730;37.818;2023-05-10T01:11:52;10.51;83.14
75155;HTU21D;63735;44.730;37.818;2023-05-10T01:14:19;10.52;83.18
75155;HTU21D;63735;44.730;37.818;2023-05-10T01:16:47;10.52;83.22
75155;HTU21D;63735;44.730;37.818;2023-05-10T01:19:21;10.53;83.26
75155;HTU21D;63735;44.730;37.818;2023-05-10T01:35:26;10.48;83.16
75155;HTU21D;63735;44.730;37.818;2023-05-10T01:38:04;10.44;83.18
75155;HTU21D;63735;44.730;37.818;2023-05-10T01:40:59;10.39;83.20
75155;HTU21D;63735;44.730;37.818;2023-05-10T01:43:33;10.35;83.10
75155;HTU21D;63735;44.730;37.818;2023-05-10T01:46:05;10.26;83.16
75155;HTU21D;63735;44.730;37.818;2023-05-10T01:48:45;10.20;83.27
75155;HTU21D;63735;44.730;37.818;2023-05-10T01:51:15;10.18;83.30
75155;HTU21D;63735;44.730;37.818;2023-05-10T01:53:44;10.15;83.32
75155;HTU21D;63735;44.730;37.818;2023-05-10T01:56:11;10.12;83.36
75155;HTU21D;63735;44.730;37.818;2023-05-10T01:58:39;10.10;83.38
75155;HTU21D;63735;44.730;37.818;2023-05-10T02:01:07;10.11;83.39
75155;HTU21D;63735;44.730;37.818;2023-05-10T02:03:35;10.08;83.43
75155;HTU21D;63735;44.730;37.818;2023-05-10T02:06:03;10.06;83.49
75155;HTU21D;63735;44.730;37.818;2023-05-10T02:08:30;10.05;83.54
75155;HTU21D;63735;44.730;37.818;2023-05-10T02:10:58;10.05;83.61
75155;HTU21D;63735;44.730;37.818;2023-05-10T02:13:26;10.03;83.62
75155;HTU21D;63735;44.730;37.818;2023-05-10T02:15:53;10.05;83.63
75155;HTU21D;63735;44.730;37.818;2023-05-10T02:18:20;9.99;83.61
75155;HTU21D;63735;44.730;37.818;2023-05-10T02:20:48;10.00;83.66
75155;HTU21D;63735;44.730;37.818;2023-05-10T02:23:16;10.03;83.65
75155;HTU21D;63735;44.730;37.818;2023-05-10T02:25:44;10.06;83.64
75155;HTU21D;63735;44.730;37.818;2023-05-10T02:28:11;10.10;83.58
75155;HTU21D;63735;44.730;37.818;2023-05-10T02:30:38;10.14;83.54
75155;HTU21D;63735;44.730;37.818;2023-05-10T02:33:05;10.16;83.49
75155;HTU21D;63735;44.730;37.818;2023-05-10T02:35:32;10.19;83.47
75155;HTU21D;63735;44.730;37.818;2023-05-10T02:37:59;10.18;83.39
75155;HTU21D;63735;44.730;37.818;2023-05-10T02:40:27;10.16;83.36
75155;HTU21D;63735;44.730;37.818;2023-05-10T02:42:56;10.18;83.24
75155;HTU21D;63735;44.730;37.818;2023-05-10T02:45:25;10.18;83.21
75155;HTU21D;63735;44.730;37.818;2023-05-10T02:47:54;10.19;83.11
75155;HTU21D;63735;44.730;37.818;2023-05-10T02:50:21;10.19;83.04
75155;HTU21D;63735;44.730;37.818;2023-05-10T02:52:50;10.20;82.98
75155;HTU21D;63735;44.730;37.818;2023-05-10T02:55:22;10.20;82.90
75155;HTU21D;63735;44.730;37.818;2023-05-10T02:58:01;10.26;82.84
75155;HTU21D;63735;44.730;37.818;2023-05-10T03:00:27;10.28;82.63
75155;HTU21D;63735;44.730;37.818;2023-05-10T03:02:54;10.26;82.05
75155;HTU21D;63735;44.730;37.818;2023-05-10T03:05:20;10.27;82.01
75155;HTU21D;63735;44.730;37.818;2023-05-10T03:07:47;10.28;81.91
75155;HTU21D;63735;44.730;37.818;2023-05-10T03:10:13;10.31;81.78
75155;HTU21D;63735;44.730;37.818;2023-05-10T03:15:37;10.31;81.40
75155;HTU21D;63735;44.730;37.818;2023-05-10T03:18:15;10.35;81.33
75155;HTU21D;63735;44.730;37.818;2023-05-10T03:20:42;10.35;81.01
75155;HTU21D;63735;44.730;37.818;2023-05-10T03:25:48;10.34;81.09
75155;HTU21D;63735;44.730;37.818;2023-05-10T03:28:16;10.36;81.16
75155;HTU21D;63735;44.730;37.818;2023-05-10T03:30:43;10.37;81.12
75155;HTU21D;63735;44.730;37.818;2023-05-10T03:33:11;10.38;81.12
75155;HTU21D;63735;44.730;37.818;2023-05-10T03:35:42;10.42;80.88
75155;HTU21D;63735;44.730;37.818;2023-05-10T03:38:10;10.46;80.87
75155;HTU21D;63735;44.730;37.818;2023-05-10T03:40:36;10.56;80.69
75155;HTU21D;63735;44.730;37.818;2023-05-10T03:43:02;10.65;80.49
75155;HTU21D;63735;44.730;37.818;2023-05-10T03:45:28;10.77;80.27
75155;HTU21D;63735;44.730;37.818;2023-05-10T03:47:53;10.88;79.99
75155;HTU21D;63735;44.730;37.818;2023-05-10T03:50:20;10.97;79.64
75155;HTU21D;63735;44.730;37.818;2023-05-10T03:52:47;11.08;79.48
75155;HTU21D;63735;44.730;37.818;2023-05-10T03:55:13;11.29;79.34
75155;HTU21D;63735;44.730;37.818;2023-05-10T03:57:39;11.48;79.03
75155;HTU21D;63735;44.730;37.818;2023-05-10T04:00:06;11.62;78.76
75155;HTU21D;63735;44.730;37.818;2023-05-10T04:02:40;11.68;78.48
75155;HTU21D;63735;44.730;37.818;2023-05-10T04:05:08;11.71;78.24
75155;HTU21D;63735;44.730;37.818;2023-05-10T04:07:34;11.71;77.97
75155;HTU21D;63735;44.730;37.818;2023-05-10T04:10:02;11.66;77.43
75155;HTU21D;63735;44.730;37.818;2023-05-10T04:12:28;11.66;77.53
75155;HTU21D;63735;44.730;37.818;2023-05-10T04:14:54;11.69;77.40
75155;HTU21D;63735;44.730;37.818;2023-05-10T04:17:20;11.71;77.09
75155;HTU21D;63735;44.730;37.818;2023-05-10T04:19:46;11.76;77.02
75155;HTU21D;63735;44.730;37.818;2023-05-10T04:22:12;11.83;76.92
75155;HTU21D;63735;44.730;37.818;2023-05-10T04:24:38;11.84;76.79
75155;HTU21D;63735;44.730;37.818;2023-05-10T04:27:04;11.81;76.92
75155;HTU21D;63735;44.730;37.818;2023-05-10T04:29:29;11.70;76.95
75155;HTU21D;63735;44.730;37.818;2023-05-10T04:31:56;11.68;77.10
75155;HTU21D;63735;44.730;37.818;2023-05-10T04:34:22;11.70;77.06
75155;HTU21D;63735;44.730;37.818;2023-05-10T04:36:48;11.74;77.08
75155;HTU21D;63735;44.730;37.818;2023-05-10T04:39:13;11.72;76.97
75155;HTU21D;63735;44.730;37.818;2023-05-10T04:41:39;11.71;77.08
75155;HTU21D;63735;44.730;37.818;2023-05-10T04:44:05;11.74;77.11
75155;HTU21D;63735;44.730;37.818;2023-05-10T04:46:31;11.70;77.12
75155;HTU21D;63735;44.730;37.818;2023-05-10T04:48:57;11.66;77.14
75155;HTU21D;63735;44.730;37.818;2023-05-10T04:51:23;11.60;77.02
75155;HTU21D;63735;44.730;37.818;2023-05-10T04:53:49;11.60;76.98
75155;HTU21D;63735;44.730;37.818;2023-05-10T04:56:15;11.61;76.90
75155;HTU21D;63735;44.730;37.818;2023-05-10T04:58:41;11.61;76.90
75155;HTU21D;63735;44.730;37.818;2023-05-10T05:01:08;11.64;76.95
75155;HTU21D;63735;44.730;37.818;2023-05-10T05:03:34;11.83;76.88
75155;HTU21D;63735;44.730;37.818;2023-05-10T05:05:59;12.05;76.49
75155;HTU21D;63735;44.730;37.818;2023-05-10T05:08:25;12.19;75.78
75155;HTU21D;63735;44.730;37.818;2023-05-10T05:10:51;12.18;75.56
75155;HTU21D;63735;44.730;37.818;2023-05-10T05:13:17;12.22;75.67
75155;HTU21D;63735;44.730;37.818;2023-05-10T05:15:44;12.29;75.51
75155;HTU21D;63735;44.730;37.818;2023-05-10T05:18:10;12.33;74.92
75155;HTU21D;63735;44.730;37.818;2023-05-10T05:20:36;12.37;74.57
75155;HTU21D;63735;44.730;37.818;2023-05-10T05:23:02;12.35;74.21
75155;HTU21D;63735;44.730;37.818;2023-05-10T05:25:28;12.35;74.11
75155;HTU21D;63735;44.730;37.818;2023-05-10T05:27:54;12.32;73.88
75155;HTU21D;63735;44.730;37.818;2023-05-10T05:30:19;12.26;73.81
75155;HTU21D;63735;44.730;37.818;2023-05-10T05:32:45;12.25;74.11
75155;HTU21D;63735;44.730;37.818;2023-05-10T05:35:12;12.27;73.90
75155;HTU21D;63735;44.730;37.818;2023-05-10T05:37:39;12.32;73.67
75155;HTU21D;63735;44.730;37.818;2023-05-10T05:40:05;12.32;73.22
75155;HTU21D;63735;44.730;37.818;2023-05-10T05:42:31;12.40;73.57
75155;HTU21D;63735;44.730;37.818;2023-05-10T05:44:57;12.51;73.30
75155;HTU21D;63735;44.730;37.818;2023-05-10T05:47:23;12.57;72.78
75155;HTU21D;63735;44.730;37.818;2023-05-10T05:49:49;12.62;72.74
75155;HTU21D;63735;44.730;37.818;2023-05-10T05:52:15;12.85;72.33
75155;HTU21D;63735;44.730;37.818;2023-05-10T05:54:41;12.97;71.37
75155;HTU21D;63735;44.730;37.818;2023-05-10T05:57:07;12.94;71.10
75155;HTU21D;63735;44.730;37.818;2023-05-10T05:59:33;12.94;71.03
75155;HTU21D;63735;44.730;37.818;2023-05-10T06:01:59;12.93;70.63
75155;HTU21D;63735;44.730;37.818;2023-05-10T06:04:26;12.90;70.85
75155;HTU21D;63735;44.730;37.818;2023-05-10T06:06:52;12.90;70.52
75155;HTU21D;63735;44.730;37.818;2023-05-10T06:09:18;12.89;70.47
75155;HTU21D;63735;44.730;37.818;2023-05-10T06:11:44;12.93;70.65
75155;HTU21D;63735;44.730;37.818;2023-05-10T06:14:10;13.01;70.72
75155;HTU21D;63735;44.730;37.818;2023-05-10T06:16:36;13.05;70.58
75155;HTU21D;63735;44.730;37.818;2023-05-10T06:19:02;13.06;70.63
75155;HTU21D;63735;44.730;37.818;2023-05-10T06:21:29;13.09;70.51
75155;HTU21D;63735;44.730;37.818;2023-05-10T06:23:55;13.08;70.39
75155;HTU21D;63735;44.730;37.818;2023-05-10T06:26:21;13.02;70.32
75155;HTU21D;63735;44.730;37.818;2023-05-10T06:28:47;13.04;69.98
75155;HTU21D;63735;44.730;37.818;2023-05-10T06:31:13;13.03;69.79
75155;HTU21D;63735;44.730;37.818;2023-05-10T06:33:39;13.07;69.94
75155;HTU21D;63735;44.730;37.818;2023-05-10T06:36:05;13.06;69.44
75155;HTU21D;63735;44.730;37.818;2023-05-10T06:38:31;13.06;69.22
75155;HTU21D;63735;44.730;37.818;2023-05-10T06:40:57;13.11;69.29
75155;HTU21D;63735;44.730;37.818;2023-05-10T06:43:23;13.20;68.91
75155;HTU21D;63735;44.730;37.818;2023-05-10T06:45:50;13.26;68.60
75155;HTU21D;63735;44.730;37.818;2023-05-10T06:48:16;13.33;68.12
75155;HTU21D;63735;44.730;37.818;2023-05-10T06:50:42;13.35;67.94
75155;HTU21D;63735;44.730;37.818;2023-05-10T06:53:08;13.47;68.06
75155;HTU21D;63735;44.730;37.818;2023-05-10T06:55:34;13.60;67.55
75155;HTU21D;63735;44.730;37.818;2023-05-10T06:57:59;13.79;67.25
75155;HTU21D;63735;44.730;37.818;2023-05-10T07:00:25;14.01;67.25
75155;HTU21D;63735;44.730;37.818;2023-05-10T07:02:51;14.20;66.42
75155;HTU21D;63735;44.730;37.818;2023-05-10T07:05:17;14.36;65.62
75155;HTU21D;63735;44.730;37.818;2023-05-10T07:07:43;14.45;65.51
75155;HTU21D;63735;44.730;37.818;2023-05-10T07:10:09;14.49;65.06
75155;HTU21D;63735;44.730;37.818;2023-05-10T07:12:36;14.47;64.48
75155;HTU21D;63735;44.730;37.818;2023-05-10T07:15:01;14.50;64.78
75155;HTU21D;63735;44.730;37.818;2023-05-10T07:17:28;14.59;64.48
75155;HTU21D;63735;44.730;37.818;2023-05-10T07:19:54;14.63;64.12
75155;HTU21D;63735;44.730;37.818;2023-05-10T07:22:20;14.71;64.18
75155;HTU21D;63735;44.730;37.818;2023-05-10T07:24:46;14.83;63.73
75155;HTU21D;63735;44.730;37.818;2023-05-10T07:27:12;14.79;63.45
75155;HTU21D;63735;44.730;37.818;2023-05-10T07:29:38;14.78;63.39
75155;HTU21D;63735;44.730;37.818;2023-05-10T07:32:04;14.95;63.36
75155;HTU21D;63735;44.730;37.818;2023-05-10T07:34:31;15.17;63.21
75155;HTU21D;63735;44.730;37.818;2023-05-10T07:37:00;15.43;62.57
75155;HTU21D;63735;44.730;37.818;2023-05-10T07:39:29;15.61;62.50
75155;HTU21D;63735;44.730;37.818;2023-05-10T07:41:55;15.81;62.29
75155;HTU21D;63735;44.730;37.818;2023-05-10T07:44:22;15.85;61.62
75155;HTU21D;63735;44.730;37.818;2023-05-10T07:46:48;15.96;61.31
75155;HTU21D;63735;44.730;37.818;2023-05-10T07:49:14;16.12;60.71
75155;HTU21D;63735;44.730;37.818;2023-05-10T07:51:40;16.21;60.50
75155;HTU21D;63735;44.730;37.818;2023-05-10T07:54:07;16.58;60.64
75155;HTU21D;63735;44.730;37.818;2023-05-10T07:56:33;17.03;60.25
75155;HTU21D;63735;44.730;37.818;2023-05-10T07:59:00;17.45;59.19
75155;HTU21D;63735;44.730;37.818;2023-05-10T08:01:30;17.52;58.39
75155;HTU21D;63735;44.730;37.818;2023-05-10T08:03:57;17.55;58.26
75155;HTU21D;63735;44.730;37.818;2023-05-10T08:06:23;17.53;58.11
75155;HTU21D;63735;44.730;37.818;2023-05-10T08:08:49;17.50;57.96
75155;HTU21D;63735;44.730;37.818;2023-05-10T08:11:19;17.44;58.22
75155;HTU21D;63735;44.730;37.818;2023-05-10T08:13:46;17.18;57.89
75155;HTU21D;63735;44.730;37.818;2023-05-10T08:16:13;16.96;57.98
75155;HTU21D;63735;44.730;37.818;2023-05-10T08:18:39;16.85;58.19
75155;HTU21D;63735;44.730;37.818;2023-05-10T08:21:06;16.80;58.49
75155;HTU21D;63735;44.730;37.818;2023-05-10T08:23:32;16.87;58.49
75155;HTU21D;63735;44.730;37.818;2023-05-10T08:25:58;16.72;57.43
75155;HTU21D;63735;44.730;37.818;2023-05-10T08:28:24;16.55;56.90
75155;HTU21D;63735;44.730;37.818;2023-05-10T08:30:50;16.39;57.05
75155;HTU21D;63735;44.730;37.818;2023-05-10T08:33:18;16.42;56.45
75155;HTU21D;63735;44.730;37.818;2023-05-10T08:35:43;16.46;56.06
75155;HTU21D;63735;44.730;37.818;2023-05-10T08:38:09;16.49;55.29
75155;HTU21D;63735;44.730;37.818;2023-05-10T08:40:37;16.55;56.09
75155;HTU21D;63735;44.730;37.818;2023-05-10T08:43:07;16.69;56.30
75155;HTU21D;63735;44.730;37.818;2023-05-10T08:45:39;16.78;55.97
75155;HTU21D;63735;44.730;37.818;2023-05-10T08:48:07;16.77;55.78
75155;HTU21D;63735;44.730;37.818;2023-05-10T08:50:37;16.89;56.03
75155;HTU21D;63735;44.730;37.818;2023-05-10T08:53:11;17.38;55.93
75155;HTU21D;63735;44.730;37.818;2023-05-10T08:55:38;17.92;55.52
75155;HTU21D;63735;44.730;37.818;2023-05-10T08:58:05;18.51;54.71
75155;HTU21D;63735;44.730;37.818;2023-05-10T09:00:32;19.08;53.49
75155;HTU21D;63735;44.730;37.818;2023-05-10T09:02:59;19.10;53.04
75155;HTU21D;63735;44.730;37.818;2023-05-10T09:05:25;18.80;53.01
75155;HTU21D;63735;44.730;37.818;2023-05-10T09:07:52;18.35;53.78
75155;HTU21D;63735;44.730;37.818;2023-05-10T09:10:19;17.96;53.94
75155;HTU21D;63735;44.730;37.818;2023-05-10T09:12:45;17.47;54.17
75155;HTU21D;63735;44.730;37.818;2023-05-10T09:15:15;17.05;54.85
75155;HTU21D;63735;44.730;37.818;2023-05-10T09:17:42;16.70;55.47
75155;HTU21D;63735;44.730;37.818;2023-05-10T09:20:09;16.33;55.91
75155;HTU21D;63735;44.730;37.818;2023-05-10T09:22:35;16.00;56.36
75155;HTU21D;63735;44.730;37.818;2023-05-10T09:25:13;15.66;57.03
75155;HTU21D;63735;44.730;37.818;2023-05-10T09:27:41;15.41;57.64
75155;HTU21D;63735;44.730;37.818;2023-05-10T09:30:08;15.14;58.22
75155;HTU21D;63735;44.730;37.818;2023-05-10T09:32:43;14.84;57.96
75155;HTU21D;63735;44.730;37.818;2023-05-10T09:35:09;14.45;58.79
75155;HTU21D;63735;44.730;37.818;2023-05-10T09:37:36;14.29;59.44
75155;HTU21D;63735;44.730;37.818;2023-05-10T09:40:05;14.21;59.89
75155;HTU21D;63735;44.730;37.818;2023-05-10T09:42:31;14.09;60.13
75155;HTU21D;63735;44.730;37.818;2023-05-10T09:45:04;14.03;60.60
75155;HTU21D;63735;44.730;37.818;2023-05-10T09:47:34;14.00;60.79
75155;HTU21D;63735;44.730;37.818;2023-05-10T09:50:01;14.01;61.05
75155;HTU21D;63735;44.730;37.818;2023-05-10T09:52:29;14.09;61.24
75155;HTU21D;63735;44.730;37.818;2023-05-10T09:54:56;14.13;61.52
75155;HTU21D;63735;44.730;37.818;2023-05-10T09:57:23;14.20;61.78
75155;HTU21D;63735;44.730;37.818;2023-05-10T09:59:49;14.32;61.75
75155;HTU21D;63735;44.730;37.818;2023-05-10T10:02:16;14.38;61.68
75155;HTU21D;63735;44.730;37.818;2023-05-10T10:04:42;14.43;60.77
75155;HTU21D;63735;44.730;37.818;2023-05-10T10:07:08;14.45;60.52
75155;HTU21D;63735;44.730;37.818;2023-05-10T10:09:35;14.53;60.38
75155;HTU21D;63735;44.730;37.818;2023-05-10T10:12:02;14.64;60.19
75155;HTU21D;63735;44.730;37.818;2023-05-10T10:14:31;14.67;60.02
75155;HTU21D;63735;44.730;37.818;2023-05-10T10:17:00;14.64;59.46
75155;HTU21D;63735;44.730;37.818;2023-05-10T10:19:26;14.60;59.53
75155;HTU21D;63735;44.730;37.818;2023-05-10T10:21:52;14.64;59.63
75155;HTU21D;63735;44.730;37.818;2023-05-10T10:24:18;14.84;59.97
75155;HTU21D;63735;44.730;37.818;2023-05-10T10:26:44;15.17;59.33
75155;HTU21D;63735;44.730;37.818;2023-05-10T10:31:50;15.86;58.29
75155;HTU21D;63735;44.730;37.818;2023-05-10T10:34:26;16.15;56.98
75155;HTU21D;63735;44.730;37.818;2023-05-10T10:36:56;16.43;56.89
75155;HTU21D;63735;44.730;37.818;2023-05-10T10:39:23;16.63;56.30
75155;HTU21D;63735;44.730;37.818;2023-05-10T10:41:53;16.76;56.58
75155;HTU21D;63735;44.730;37.818;2023-05-10T10:44:23;16.90;56.38
75155;HTU21D;63735;44.730;37.818;2023-05-10T10:47:22;16.99;55.97
75155;HTU21D;63735;44.730;37.818;2023-05-10T10:50:02;17.01;55.76
75155;HTU21D;63735;44.730;37.818;2023-05-10T10:52:44;16.79;55.90
75155;HTU21D;63735;44.730;37.818;2023-05-10T10:55:11;16.67;55.81
75155;HTU21D;63735;44.730;37.818;2023-05-10T11:00:28;16.43;55.58
75155;HTU21D;63735;44.730;37.818;2023-05-10T11:03:11;16.44;56.12
75155;HTU21D;63735;44.730;37.818;2023-05-10T11:05:49;16.81;55.76
75155;HTU21D;63735;44.730;37.818;2023-05-10T11:08:28;17.08;55.04
75155;HTU21D;63735;44.730;37.818;2023-05-10T11:15:58;16.95;53.42
75155;HTU21D;63735;44.730;37.818;2023-05-10T11:18:29;16.90;53.74
75155;HTU21D;63735;44.730;37.818;2023-05-10T11:21:00;16.77;53.83
75155;HTU21D;63735;44.730;37.818;2023-05-10T11:23:52;16.74;53.94
75155;HTU21D;63735;44.730;37.818;2023-05-10T11:26:22;16.56;54.17
75155;HTU21D;63735;44.730;37.818;2023-05-10T11:28:52;16.19;54.59
75155;HTU21D;63735;44.730;37.818;2023-05-10T11:31:19;15.90;55.25
75155;HTU21D;63735;44.730;37.818;2023-05-10T11:33:46;15.71;55.74
75155;HTU21D;63735;44.730;37.818;2023-05-10T11:36:17;15.48;55.91
75155;HTU21D;63735;44.730;37.818;2023-05-10T11:38:44;15.25;56.42
75155;HTU21D;63735;44.730;37.818;2023-05-10T11:41:10;15.15;56.79
75155;HTU21D;63735;44.730;37.818;2023-05-10T11:43:40;14.98;56.81
75155;HTU21D;63735;44.730;37.818;2023-05-10T11:46:15;14.87;57.16
75155;HTU21D;63735;44.730;37.818;2023-05-10T11:48:42;14.80;57.24
75155;HTU21D;63735;44.730;37.818;2023-05-10T11:51:09;14.77;57.48
75155;HTU21D;63735;44.730;37.818;2023-05-10T11:53:36;14.78;57.45
75155;HTU21D;63735;44.730;37.818;2023-05-10T11:56:09;14.77;57.22
75155;HTU21D;63735;44.730;37.818;2023-05-10T11:58:37;14.88;57.33
75155;HTU21D;63735;44.730;37.818;2023-05-10T12:01:04;15.06;57.02
75155;HTU21D;63735;44.730;37.818;2023-05-10T12:03:31;15.19;56.48
75155;HTU21D;63735;44.730;37.818;2023-05-10T12:05:58;15.33;56.23
75155;HTU21D;63735;44.730;37.818;2023-05-10T12:08:26;15.52;55.81
75155;HTU21D;63735;44.730;37.818;2023-05-10T12:11:03;15.73;55.72
75155;HTU21D;63735;44.730;37.818;2023-05-10T12:13:29;16.24;55.84
75155;HTU21D;63735;44.730;37.818;2023-05-10T12:15:57;16.65;54.63
75155;HTU21D;63735;44.730;37.818;2023-05-10T12:18:24;17.02;54.17
75155;HTU21D;63735;44.730;37.818;2023-05-10T12:20:53;17.30;53.87
75155;HTU21D;63735;44.730;37.818;2023-05-10T12:23:20;17.50;53.49
75155;HTU21D;63735;44.730;37.818;2023-05-10T12:25:46;17.34;53.18
75155;HTU21D;63735;44.730;37.818;2023-05-10T12:28:12;17.01;53.50
75155;HTU21D;63735;44.730;37.818;2023-05-10T12:30:38;16.74;53.63
75155;HTU21D;63735;44.730;37.818;2023-05-10T12:33:12;16.61;53.81
75155;HTU21D;63735;44.730;37.818;2023-05-10T12:35:52;16.37;53.59
75155;HTU21D;63735;44.730;37.818;2023-05-10T12:38:44;16.10;53.77
75155;HTU21D;63735;44.730;37.818;2023-05-10T12:41:15;16.04;54.79
75155;HTU21D;63735;44.730;37.818;2023-05-10T12:43:42;16.17;54.74
75155;HTU21D;63735;44.730;37.818;2023-05-10T12:46:12;16.29;54.56
75155;HTU21D;63735;44.730;37.818;2023-05-10T12:48:39;16.31;54.68
75155;HTU21D;63735;44.730;37.818;2023-05-10T12:51:06;16.35;54.61
75155;HTU21D;63735;44.730;37.818;2023-05-10T12:53:41;16.28;54.62
75155;HTU21D;63735;44.730;37.818;2023-05-10T12:56:07;16.10;54.67
75155;HTU21D;63735;44.730;37.818;2023-05-10T12:58:34;15.93;54.84
75155;HTU21D;63735;44.730;37.818;2023-05-10T13:01:00;15.90;55.40
75155;HTU21D;63735;44.730;37.818;2023-05-10T13:03:26;16.00;55.73
75155;HTU21D;63735;44.730;37.818;2023-05-10T13:05:52;16.20;55.88
75155;HTU21D;63735;44.730;37.818;2023-05-10T13:08:18;16.35;55.32
75155;HTU21D;63735;44.730;37.818;2023-05-10T13:10:44;16.41;54.87
75155;HTU21D;63735;44.730;37.818;2023-05-10T13:13:10;16.32;55.36
75155;HTU21D;63735;44.730;37.818;2023-05-10T13:15:36;16.26;55.37
75155;HTU21D;63735;44.730;37.818;2023-05-10T13:18:02;15.98;55.00
75155;HTU21D;63735;44.730;37.818;2023-05-10T13:20:28;15.70;55.22
75155;HTU21D;63735;44.730;37.818;2023-05-10T13:22:54;15.54;55.74
75155;HTU21D;63735;44.730;37.818;2023-05-10T13:25:21;15.46;56.14
75155;HTU21D;63735;44.730;37.818;2023-05-10T13:27:47;15.45;56.53
75155;HTU21D;63735;44.730;37.818;2023-05-10T13:30:13;15.41;56.74
75155;HTU21D;63735;44.730;37.818;2023-05-10T13:32:39;15.28;56.78
75155;HTU21D;63735;44.730;37.818;2023-05-10T13:35:05;15.15;57.00
75155;HTU21D;63735;44.730;37.818;2023-05-10T13:37:32;15.04;57.06
75155;HTU21D;63735;44.730;37.818;2023-05-10T13:40:01;14.92;56.99
75155;HTU21D;63735;44.730;37.818;2023-05-10T13:42:27;14.89;57.10
75155;HTU21D;63735;44.730;37.818;2023-05-10T13:44:53;14.92;56.95
75155;HTU21D;63735;44.730;37.818;2023-05-10T13:47:19;14.96;56.96
75155;HTU21D;63735;44.730;37.818;2023-05-10T13:49:47;15.10;56.61
75155;HTU21D;63735;44.730;37.818;2023-05-10T13:52:13;15.30;56.07
75155;HTU21D;63735;44.730;37.818;2023-05-10T13:54:39;15.51;55.60
75155;HTU21D;63735;44.730;37.818;2023-05-10T13:57:05;15.66;55.73
75155;HTU21D;63735;44.730;37.818;2023-05-10T13:59:32;15.67;55.51
75155;HTU21D;63735;44.730;37.818;2023-05-10T14:01:58;15.46;55.45
75155;HTU21D;63735;44.730;37.818;2023-05-10T14:04:24;15.21;55.96
75155;HTU21D;63735;44.730;37.818;2023-05-10T14:06:50;14.98;56.38
75155;HTU21D;63735;44.730;37.818;2023-05-10T14:09:18;14.75;56.44
75155;HTU21D;63735;44.730;37.818;2023-05-10T14:11:45;14.54;56.67
75155;HTU21D;63735;44.730;37.818;2023-05-10T14:14:12;14.37;56.97
75155;HTU21D;63735;44.730;37.818;2023-05-10T14:16:43;14.30;57.35
75155;HTU21D;63735;44.730;37.818;2023-05-10T14:19:10;14.25;57.56
75155;HTU21D;63735;44.730;37.818;2023-05-10T14:21:37;14.20;57.75
75155;HTU21D;63735;44.730;37.818;2023-05-10T14:24:03;14.14;57.84
75155;HTU21D;63735;44.730;37.818;2023-05-10T14:26:29;14.08;57.93
75155;HTU21D;63735;44.730;37.818;2023-05-10T14:28:56;14.03;57.94
75155;HTU21D;63735;44.730;37.818;2023-05-10T14:31:22;14.03;58.10
75155;HTU21D;63735;44.730;37.818;2023-05-10T14:33:51;13.99;58.01
75155;HTU21D;63735;44.730;37.818;2023-05-10T14:36:17;13.91;58.00
75155;HTU21D;63735;44.730;37.818;2023-05-10T14:38:43;13.86;58.07
75155;HTU21D;63735;44.730;37.818;2023-05-10T14:41:09;13.79;57.68
75155;HTU21D;63735;44.730;37.818;2023-05-10T14:43:39;13.76;57.78
75155;HTU21D;63735;44.730;37.818;2023-05-10T14:46:06;13.74;57.97
75155;HTU21D;63735;44.730;37.818;2023-05-10T14:48:32;13.78;58.19
75155;HTU21D;63735;44.730;37.818;2023-05-10T14:50:58;13.77;58.33
75155;HTU21D;63735;44.730;37.818;2023-05-10T14:53:24;13.79;58.52
75155;HTU21D;63735;44.730;37.818;2023-05-10T14:55:50;13.79;58.54
75155;HTU21D;63735;44.730;37.818;2023-05-10T14:58:16;13.71;58.45
75155;HTU21D;63735;44.730;37.818;2023-05-10T15:00:42;13.67;58.39
75155;HTU21D;63735;44.730;37.818;2023-05-10T15:03:09;13.64;58.37
75155;HTU21D;63735;44.730;37.818;2023-05-10T15:05:35;13.64;58.44
75155;HTU21D;63735;44.730;37.818;2023-05-10T15:08:03;13.60;58.28
75155;HTU21D;63735;44.730;37.818;2023-05-10T15:10:30;13.56;58.26
75155;HTU21D;63735;44.730;37.818;2023-05-10T15:12:56;13.53;58.41
75155;HTU21D;63735;44.730;37.818;2023-05-10T15:15:21;13.55;58.44
75155;HTU21D;63735;44.730;37.818;2023-05-10T15:17:48;13.52;58.38
75155;HTU21D;63735;44.730;37.818;2023-05-10T15:20:14;13.52;58.51
75155;HTU21D;63735;44.730;37.818;2023-05-10T15:22:40;13.46;58.22
75155;HTU21D;63735;44.730;37.818;2023-05-10T15:25:07;13.36;58.44
75155;HTU21D;63735;44.730;37.818;2023-05-10T15:27:33;13.29;58.61
75155;HTU21D;63735;44.730;37.818;2023-05-10T15:29:58;13.29;58.85
75155;HTU21D;63735;44.730;37.818;2023-05-10T15:32:25;13.24;58.96
75155;HTU21D;63735;44.730;37.818;2023-05-10T15:34:51;13.12;58.96